Time;durP1;ratioP1;P1;durP2;ratioP2;P2;SDS_P1;SDS_P2;PMS_P1;PMS_P2;Temp;Humidity;BMP_temperature;BMP_pressure;BME280_temperature;BME280_humidity;BME280_pressure;Samples;Min_cycle;Max_cycle;Signal;HPM_P1;HPM_P2
2021/01/21 00:01:52;;;;;;;13.90;6.10;;;;;;;2.15;64.97;94524.41;4969539;28;20059;-41
2021/01/21 00:04:19;;;;;;;10.85;5.88;;;;;;;2.16;65.03;94524.09;4971178;28;20832;-38
2021/01/21 00:06:45;;;;;;;9.32;5.47;;;;;;;2.20;64.77;94522.38;4972504;28;20082;-39
2021/01/21 00:09:13;;;;;;;11.05;5.80;;;;;;;2.27;64.01;94529.91;4970040;28;20098;-38
2021/01/21 00:11:40;;;;;;;14.60;5.75;;;;;;;2.05;64.86;94510.28;4970183;28;20047;-38
2021/01/21 00:14:06;;;;;;;10.95;5.90;;;;;;;2.04;65.13;94500.69;4972090;28;20568;-39
2021/01/21 00:16:34;;;;;;;11.75;6.10;;;;;;;2.10;65.17;94486.09;4969378;28;20142;-39
2021/01/21 00:19:01;;;;;;;11.63;6.18;;;;;;;2.13;65.17;94489.25;4968273;28;20051;-39
2021/01/21 00:21:27;;;;;;;10.43;6.03;;;;;;;2.16;65.08;94483.28;4971229;28;20117;-38
2021/01/21 00:23:54;;;;;;;9.82;5.95;;;;;;;2.21;64.73;94485.78;4972614;28;20077;-38
2021/01/21 00:26:21;;;;;;;10.90;5.63;;;;;;;2.29;64.30;94483.13;4972186;28;20069;-39
2021/01/21 00:28:51;;;;;;;8.52;5.30;;;;;;;2.03;64.63;94482.34;4969871;28;20043;-39
2021/01/21 00:31:21;;;;;;;8.40;5.00;;;;;;;1.96;64.98;94476.69;4970422;28;20046;-39
2021/01/21 00:33:47;;;;;;;9.00;5.00;;;;;;;2.09;64.88;94481.09;4972712;28;20167;-39
2021/01/21 00:36:15;;;;;;;8.93;4.95;;;;;;;2.17;64.79;94479.50;4991014;23;20129;-41
2021/01/21 00:38:41;;;;;;;8.30;4.53;;;;;;;2.10;64.49;94472.75;4974490;28;20079;-39
2021/01/21 00:41:08;;;;;;;8.63;4.20;;;;;;;2.17;63.60;94472.28;4972921;28;20460;-39
2021/01/21 00:43:35;;;;;;;9.80;5.13;;;;;;;2.08;64.98;94469.66;4972796;28;20054;-39
2021/01/21 00:46:03;;;;;;;9.48;4.80;;;;;;;2.23;64.66;94457.69;4969423;28;20058;-39
2021/01/21 00:48:30;;;;;;;8.85;5.18;;;;;;;2.25;64.77;94449.38;4975229;28;20093;-39
2021/01/21 00:50:56;;;;;;;9.23;4.63;;;;;;;2.30;64.34;94447.31;4975860;28;20057;-39
2021/01/21 00:53:23;;;;;;;10.75;5.53;;;;;;;2.54;64.14;94462.84;4973790;28;20047;-39
2021/01/21 00:55:49;;;;;;;6.35;3.80;;;;;;;2.72;62.28;94463.59;4970870;28;20062;-39
2021/01/21 00:58:16;;;;;;;8.30;3.90;;;;;;;2.91;62.37;94460.56;4970257;28;20046;-39
2021/01/21 01:00:45;;;;;;;6.97;3.38;;;;;;;2.96;61.05;94447.03;4971969;28;20062;-39
2021/01/21 01:03:15;;;;;;;9.57;2.30;;;;;;;3.16;57.97;94458.91;4968953;28;20051;-39
2021/01/21 01:05:42;;;;;;;4.65;2.10;;;;;;;3.20;57.57;94441.13;4970747;28;20106;-39
2021/01/21 01:08:10;;;;;;;6.75;2.28;;;;;;;3.43;56.77;94452.31;4970743;28;20487;-40
2021/01/21 01:10:37;;;;;;;3.85;2.22;;;;;;;3.60;56.37;94459.47;4972100;28;20259;-39
2021/01/21 01:13:14;;;;;;;5.10;2.33;;;;;;;3.55;56.06;94450.84;4965884;28;20100;-39
2021/01/21 01:15:41;;;;;;;4.75;2.20;;;;;;;3.36;56.22;94461.97;4970507;28;20152;-39
2021/01/21 01:18:08;;;;;;;5.53;2.90;;;;;;;3.34;57.91;94451.56;4986428;28;20472;-39
2021/01/21 01:20:36;;;;;;;5.68;2.85;;;;;;;3.39;58.25;94442.59;4968375;28;20393;-39
2021/01/21 01:23:02;;;;;;;6.28;2.80;;;;;;;3.50;57.68;94459.84;4968691;28;20058;-39
2021/01/21 01:25:33;;;;;;;3.97;2.38;;;;;;;3.35;56.52;94405.03;4969521;28;20065;-40
2021/01/21 01:28:00;;;;;;;4.78;2.40;;;;;;;3.54;56.20;94423.31;4970603;28;20038;-40
2021/01/21 01:30:27;;;;;;;5.20;2.45;;;;;;;3.57;55.46;94408.50;4967264;28;20070;-39
2021/01/21 01:32:55;;;;;;;4.05;2.10;;;;;;;3.60;55.37;94422.00;4962268;28;20046;-39
2021/01/21 01:35:22;;;;;;;4.82;2.08;;;;;;;3.59;55.56;94414.34;4965831;28;20051;-40
2021/01/21 01:37:52;;;;;;;5.28;2.03;;;;;;;3.66;54.95;94409.25;4973700;28;20239;-40
2021/01/21 01:40:20;;;;;;;4.57;2.10;;;;;;;3.64;54.96;94416.81;4975187;28;20101;-40
2021/01/21 01:42:50;;;;;;;3.97;2.20;;;;;;;3.79;54.68;94415.44;4974722;28;20065;-40
2021/01/21 01:45:20;;;;;;;3.78;2.08;;;;;;;3.78;54.48;94422.69;4959857;28;20424;-39
2021/01/21 01:47:49;;;;;;;4.45;1.95;;;;;;;3.89;54.67;94418.50;4973864;28;20101;-40
2021/01/21 01:50:36;;;;;;;5.88;2.72;;;;;;;3.22;56.22;94432.78;4965447;28;20059;-40
2021/01/21 01:53:06;;;;;;;3.90;2.10;;;;;;;2.94;57.18;94443.88;4970641;28;20061;-40
2021/01/21 01:55:33;;;;;;;4.93;2.35;;;;;;;2.61;58.79;94453.59;4959783;28;20110;-39
2021/01/21 01:58:19;;;;;;;4.80;2.28;;;;;;;2.54;58.48;94460.19;4960772;28;20058;-39
2021/01/21 02:00:56;;;;;;;5.05;2.47;;;;;;;2.56;59.25;94465.19;4966999;28;20046;-39
2021/01/21 02:03:23;;;;;;;4.30;2.53;;;;;;;2.77;58.56;94470.66;4973825;28;20122;-39
2021/01/21 02:06:18;;;;;;;5.47;2.35;;;;;;;2.91;57.50;94459.78;4974952;28;20077;-39
2021/01/21 02:08:44;;;;;;;3.75;2.38;;;;;;;2.75;58.33;94462.97;4972307;28;20129;-38
2021/01/21 02:11:28;;;;;;;4.28;2.17;;;;;;;2.55;58.78;94479.66;4977577;28;20062;-38
2021/01/21 02:14:03;;;;;;;3.95;2.45;;;;;;;2.70;61.02;94471.16;4974910;28;20541;-38
2021/01/21 02:16:55;;;;;;;4.28;2.35;;;;;;;2.97;59.79;94475.31;4973237;28;20093;-38
2021/01/21 02:19:45;;;;;;;4.63;2.70;;;;;;;3.26;58.31;94473.81;4970532;28;20129;-39
2021/01/21 02:22:28;;;;;;;4.43;2.30;;;;;;;3.29;57.86;94470.50;4974008;28;20539;-38
2021/01/21 02:25:08;;;;;;;4.30;2.45;;;;;;;3.27;58.75;94472.69;4973635;28;20078;-39
2021/01/21 02:27:45;;;;;;;4.28;2.38;;;;;;;2.73;59.53;94472.38;4971138;28;20456;-39
2021/01/21 02:30:27;;;;;;;4.78;2.42;;;;;;;2.43;61.10;94442.13;4958737;28;20167;-38
2021/01/21 02:33:23;;;;;;;4.47;2.55;;;;;;;2.85;60.16;94461.81;4962959;28;20047;-38
2021/01/21 02:35:52;;;;;;;4.75;2.50;;;;;;;3.05;58.89;94463.00;4957042;28;20106;-38
2021/01/21 02:38:21;;;;;;;5.05;2.58;;;;;;;3.03;59.94;94449.22;4967395;28;20051;-38
2021/01/21 02:40:48;;;;;;;5.72;2.20;;;;;;;3.09;59.29;94439.91;4970240;28;20133;-38
2021/01/21 02:43:21;;;;;;;6.03;2.63;;;;;;;3.25;58.85;94448.16;4961357;28;20055;-38
2021/01/21 02:45:50;;;;;;;3.92;2.22;;;;;;;3.30;59.59;94439.19;4973517;28;20087;-38
2021/01/21 02:48:17;;;;;;;5.05;2.50;;;;;;;3.50;58.60;94428.53;4969943;28;20051;-38
2021/01/21 02:51:02;;;;;;;3.75;2.17;;;;;;;3.43;58.91;94428.25;4961527;28;20481;-38
2021/01/21 02:53:32;;;;;;;4.28;2.20;;;;;;;3.27;57.87;94403.19;4960375;28;20058;-39
2021/01/21 02:56:06;;;;;;;5.65;2.40;;;;;;;3.35;59.14;94410.38;4956028;28;20043;-39
2021/01/21 02:58:45;;;;;;;4.32;2.65;;;;;;;3.48;58.34;94417.38;4962980;28;20050;-39
2021/01/21 03:01:16;;;;;;;5.93;2.45;;;;;;;3.46;59.58;94414.25;4973913;28;20047;-40
2021/01/21 03:03:48;;;;;;;4.63;2.30;;;;;;;3.46;58.52;94410.78;4972159;28;20141;-39
2021/01/21 03:06:19;;;;;;;5.82;2.50;;;;;;;3.48;57.60;94414.72;4972983;28;20086;-40
2021/01/21 03:08:48;;;;;;;4.47;2.35;;;;;;;3.45;56.88;94410.00;4959000;28;20058;-40
2021/01/21 03:11:15;;;;;;;5.80;2.50;;;;;;;3.28;58.05;94423.47;4966084;28;20050;-40
2021/01/21 03:13:49;;;;;;;4.40;2.55;;;;;;;2.41;60.75;94431.00;4974135;28;20042;-40
2021/01/21 03:16:19;;;;;;;5.30;2.70;;;;;;;2.08;61.92;94434.97;4970472;28;20047;-40
2021/01/21 03:18:53;;;;;;;4.72;2.47;;;;;;;2.02;62.10;94438.88;4976896;28;20067;-40
2021/01/21 03:21:20;;;;;;;4.78;2.40;;;;;;;2.17;61.53;94436.81;4969650;28;20058;-40
2021/01/21 03:23:50;;;;;;;3.70;2.20;;;;;;;2.35;60.72;94443.72;4975336;28;20500;-40
2021/01/21 03:26:23;;;;;;;6.70;2.55;;;;;;;2.58;60.06;94429.06;4962177;28;20417;-40
2021/01/21 03:29:07;;;;;;;3.33;2.03;;;;;;;2.76;59.62;94439.69;4973420;28;20059;-40
2021/01/21 03:31:35;;;;;;;5.68;2.40;;;;;;;2.86;60.13;94433.22;4974822;28;20054;-40
2021/01/21 03:34:02;;;;;;;4.35;2.45;;;;;;;2.64;60.03;94444.94;4971748;28;20050;-40
2021/01/21 03:36:30;;;;;;;5.43;2.30;;;;;;;2.40;60.58;94446.22;4971883;28;20054;-40
2021/01/21 03:38:59;;;;;;;6.35;2.60;;;;;;;1.92;62.73;94449.88;4975766;28;20055;-39
2021/01/21 03:41:51;;;;;;;5.15;2.63;;;;;;;2.40;60.52;94451.56;4972127;28;20077;-39
2021/01/21 03:44:28;;;;;;;4.68;2.25;;;;;;;2.62;61.84;94439.91;4969683;28;20058;-39
2021/01/21 03:46:58;;;;;;;4.30;2.55;;;;;;;3.03;59.84;94444.66;4971383;28;20052;-39
2021/01/21 03:49:45;;;;;;;3.38;2.00;;;;;;;2.77;59.88;94435.94;4965380;28;20051;-39
2021/01/21 03:52:16;;;;;;;4.70;2.47;;;;;;;2.79;61.20;94433.72;4955743;28;20081;-40
2021/01/21 03:55:00;;;;;;;;;;;;;;;2.97;60.19;94442.47;4985205;28;20051;-39
2021/01/21 03:57:26;;;;;;;4.57;2.38;;;;;;;2.54;61.78;94452.19;4975732;28;19922;-39
2021/01/21 04:00:04;;;;;;;4.10;2.42;;;;;;;2.29;62.70;94455.66;4978204;28;20065;-39
2021/01/21 04:02:41;;;;;;;5.90;3.30;;;;;;;2.18;62.96;94443.72;4980052;28;20047;-39
2021/01/21 04:05:20;;;;;;;7.13;3.10;;;;;;;2.36;62.54;94463.19;4976354;28;20047;-39
2021/01/21 04:07:46;;;;;;;7.85;4.63;;;;;;;2.21;62.88;94457.25;4969696;28;20055;-39
2021/01/21 04:10:13;;;;;;;10.02;6.30;;;;;;;2.30;63.14;94463.34;4973796;28;20054;-39
2021/01/21 04:12:53;;;;;;;10.00;6.35;;;;;;;2.29;63.18;94466.34;4973039;28;20137;-40
2021/01/21 04:15:19;;;;;;;13.50;7.80;;;;;;;2.27;63.21;94455.19;4975257;28;20493;-40
2021/01/21 04:17:47;;;;;;;9.60;6.22;;;;;;;2.44;62.61;94441.84;4979913;28;20154;-38
2021/01/21 04:20:14;;;;;;;12.10;7.53;;;;;;;2.25;64.00;94454.72;4977432;28;20451;-38
2021/01/21 04:22:41;;;;;;;11.98;6.70;;;;;;;2.40;63.48;94446.22;4983389;28;20058;-39
2021/01/21 04:25:09;;;;;;;11.70;7.15;;;;;;;2.30;64.02;94446.53;4964860;28;20043;-40
2021/01/21 04:27:43;;;;;;;11.68;7.43;;;;;;;2.23;63.28;94441.69;4971871;28;20150;-38
2021/01/21 04:30:13;;;;;;;11.23;7.03;;;;;;;2.19;63.77;94445.31;4965927;28;20233;-39
2021/01/21 04:32:40;;;;;;;11.55;6.95;;;;;;;1.83;64.58;94435.75;4982717;28;20074;-40
2021/01/21 04:35:10;;;;;;;12.15;7.25;;;;;;;1.74;64.86;94448.28;4980322;28;20481;-39
2021/01/21 04:37:37;;;;;;;12.13;7.40;;;;;;;1.87;64.63;94444.69;4983011;28;20118;-39
2021/01/21 04:40:22;;;;;;;11.98;7.50;;;;;;;1.84;64.54;94445.31;4961252;29;20059;-38
2021/01/21 04:43:00;;;;;;;14.48;7.88;;;;;;;1.26;66.78;94439.25;4962498;28;20047;-38
2021/01/21 04:45:27;;;;;;;13.75;8.68;;;;;;;0.97;67.88;94439.00;4974520;28;20318;-38
2021/01/21 04:47:54;;;;;;;15.30;9.65;;;;;;;0.79;68.57;94425.63;4971587;28;20062;-38
2021/01/21 04:50:27;;;;;;;14.15;8.95;;;;;;;1.11;67.53;94437.03;4970791;28;20059;-38
2021/01/21 04:53:25;;;;;;;14.75;8.23;;;;;;;1.35;67.19;94437.38;4982586;28;20050;-38
2021/01/21 04:56:06;;;;;;;14.35;8.05;;;;;;;1.42;66.83;94444.16;4981701;28;20074;-39
2021/01/21 04:58:50;;;;;;;15.10;7.93;;;;;;;1.27;67.58;94440.03;4965656;28;20098;-39
2021/01/21 05:01:30;;;;;;;9.40;6.10;;;;;;;1.19;67.92;94454.13;4973509;28;20055;-39
2021/01/21 05:03:57;;;;;;;10.38;6.50;;;;;;;0.96;69.18;94451.53;4980451;28;20065;-39
2021/01/21 05:06:45;;;;;;;8.27;4.43;;;;;;;1.10;69.46;94456.75;4980440;28;20063;-39
2021/01/21 05:09:16;;;;;;;9.27;5.90;;;;;;;1.39;68.41;94458.88;4962411;29;20402;-40
2021/01/21 05:11:43;;;;;;;9.02;5.00;;;;;;;1.70;67.27;94455.34;4965805;28;20062;-40
2021/01/21 05:14:25;;;;;;;10.85;5.90;;;;;;;1.78;66.59;94446.56;4981260;28;20047;-39
2021/01/21 05:17:30;;;;;;;9.85;6.05;;;;;;;1.80;66.14;94444.38;4982647;28;20058;-39
2021/01/21 05:20:16;;;;;;;9.50;6.03;;;;;;;1.72;66.31;94443.25;4986851;28;20050;-39
2021/01/21 05:22:42;;;;;;;13.32;6.20;;;;;;;1.88;66.30;94446.25;4975366;28;20047;-39
2021/01/21 05:25:12;;;;;;;12.35;6.82;;;;;;;1.54;66.73;94439.00;4986709;28;20129;-39
2021/01/21 05:27:49;;;;;;;12.13;5.88;;;;;;;1.75;66.50;94447.94;4982115;28;20051;-39
2021/01/21 05:30:36;;;;;;;12.55;6.38;;;;;;;1.97;66.04;94438.25;4970762;28;20046;-39
2021/01/21 05:33:03;;;;;;;11.35;6.35;;;;;;;1.96;66.37;94442.81;4985102;28;20050;-39
2021/01/21 05:35:43;;;;;;;10.90;6.63;;;;;;;2.17;66.39;94455.50;4994561;28;20076;-39
2021/01/21 05:38:10;;;;;;;11.10;5.90;;;;;;;2.38;64.90;94453.00;4976186;28;20109;-40
2021/01/21 05:40:57;;;;;;;15.10;7.47;;;;;;;1.86;66.93;94443.91;4967629;28;20110;-39
2021/01/21 05:43:48;;;;;;;13.93;6.43;;;;;;;1.71;67.04;94440.91;4976641;28;20055;-39
2021/01/21 05:46:26;;;;;;;10.82;6.40;;;;;;;1.82;67.13;94453.63;4965251;28;20062;-39
2021/01/21 05:48:54;;;;;;;10.35;5.82;;;;;;;1.68;67.37;94441.53;4980348;28;20050;-39
2021/01/21 05:51:25;;;;;;;14.52;6.90;;;;;;;1.67;68.03;94447.97;4979209;28;20051;-39
2021/01/21 05:53:56;;;;;;;15.43;6.72;;;;;;;1.74;68.03;94457.06;4980457;28;20043;-39
2021/01/21 05:56:43;;;;;;;12.48;6.40;;;;;;;2.00;67.52;94448.28;4973013;28;20062;-39
2021/01/21 05:59:16;;;;;;;15.75;7.35;;;;;;;2.19;66.47;94445.31;4978530;28;20078;-40
2021/01/21 06:01:49;;;;;;;10.57;6.68;;;;;;;1.77;68.38;94467.09;4982358;28;20055;-40
2021/01/21 06:04:29;;;;;;;12.27;6.53;;;;;;;1.73;67.62;94460.84;4978503;28;20106;-40
2021/01/21 06:06:56;;;;;;;12.00;6.05;;;;;;;1.19;67.87;94398.16;4977759;28;20039;-40
2021/01/21 06:09:31;;;;;;;11.38;6.07;;;;;;;1.77;67.92;94464.44;4982257;28;20051;-41
2021/01/21 06:12:01;;;;;;;9.10;6.00;;;;;;;2.01;66.61;94450.63;4982367;28;20066;-40
2021/01/21 06:14:28;;;;;;;12.00;6.28;;;;;;;2.35;65.85;94454.41;4980181;28;20039;-40
2021/01/21 06:16:56;;;;;;;9.30;6.25;;;;;;;2.48;65.79;94441.97;4980683;28;20397;-40
2021/01/21 06:19:24;;;;;;;11.80;6.68;;;;;;;2.61;65.01;94430.31;4981980;28;20047;-40
2021/01/21 06:22:04;;;;;;;16.17;7.38;;;;;;;2.58;66.18;94452.31;4979921;28;20136;-40
2021/01/21 06:24:49;;;;;;;17.38;7.45;;;;;;;2.46;66.52;94458.28;4981593;28;20043;-40
2021/01/21 06:27:16;;;;;;;13.85;6.90;;;;;;;2.34;66.55;94452.84;4982935;28;20074;-40
2021/01/21 06:29:46;;;;;;;15.90;7.20;;;;;;;2.28;67.04;94448.75;4994360;28;20059;-40
2021/01/21 06:32:16;;;;;;;14.65;6.60;;;;;;;2.23;67.14;94441.69;4974559;28;20129;-40
2021/01/21 06:34:43;;;;;;;11.45;6.28;;;;;;;1.93;66.77;94378.63;4975081;28;20047;-43
2021/01/21 06:37:15;;;;;;;12.85;7.07;;;;;;;2.47;66.96;94453.75;4974020;28;20525;-42
2021/01/21 06:39:51;;;;;;;13.68;6.63;;;;;;;2.83;65.69;94445.34;4974303;28;20071;-42
2021/01/21 06:42:34;;;;;;;12.05;6.95;;;;;;;2.79;65.62;94453.22;4987310;23;20516;-41
2021/01/21 06:45:02;;;;;;;13.63;7.90;;;;;;;2.75;66.02;94446.94;4952226;28;20049;-38
2021/01/21 06:47:30;;;;;;;11.80;7.18;;;;;;;2.51;66.97;94460.03;4948512;29;20094;-38
2021/01/21 06:50:00;;;;;;;22.92;8.75;;;;;;;2.32;67.93;94453.13;4948712;28;20066;-37
2021/01/21 06:52:30;;;;;;;15.05;7.13;;;;;;;2.32;67.74;94449.69;4952114;28;20143;-38
2021/01/21 06:55:00;;;;;;;12.30;6.70;;;;;;;2.34;66.85;94426.16;4935058;29;20047;-38
2021/01/21 06:57:34;;;;;;;12.43;6.57;;;;;;;2.76;66.50;94463.72;4950781;29;20058;-38
2021/01/21 07:00:11;;;;;;;11.33;6.90;;;;;;;2.88;66.21;94457.75;4935655;29;20103;-37
2021/01/21 07:02:45;;;;;;;11.23;6.40;;;;;;;3.01;65.58;94452.19;4935496;28;20298;-39
2021/01/21 07:05:25;;;;;;;11.25;5.72;;;;;;;3.24;64.61;94446.59;4936915;29;20058;-38
2021/01/21 07:08:01;;;;;;;9.70;4.20;;;;;;;3.34;62.82;94454.25;4935559;29;20063;-38
2021/01/21 07:10:44;;;;;;;11.35;5.88;;;;;;;3.41;63.45;94451.88;4936966;29;20099;-38
2021/01/21 07:13:18;;;;;;;6.03;3.45;;;;;;;3.47;62.61;94461.25;4935458;29;20584;-40
2021/01/21 07:15:57;;;;;;;6.80;3.28;;;;;;;3.77;60.41;94450.56;4933010;29;20553;-39
2021/01/21 07:18:30;;;;;;;7.32;2.85;;;;;;;4.08;58.35;94452.06;4936192;29;20475;-38
2021/01/21 07:21:00;;;;;;;;;;;;;;;4.74;54.84;94449.41;4933924;29;20048;-39
2021/01/21 07:23:42;;;;;;;7.07;2.15;;;;;;;4.96;53.50;94450.16;4951035;28;20021;-39
2021/01/21 07:26:20;;;;;;;4.80;2.22;;;;;;;5.24;52.69;94453.00;4935211;29;20044;-38
2021/01/21 07:29:12;;;;;;;4.32;1.52;;;;;;;5.50;51.06;94455.34;4933445;29;20138;-39
2021/01/21 07:31:55;;;;;;;3.72;1.40;;;;;;;5.87;50.20;94461.47;4933013;29;20059;-39
2021/01/21 07:34:27;;;;;;;3.08;1.30;;;;;;;5.92;49.73;94452.41;4935186;29;20106;-38
2021/01/21 07:37:15;;;;;;;5.13;1.63;;;;;;;6.22;48.51;94460.97;4919337;29;20052;-39
2021/01/21 07:39:50;;;;;;;8.15;1.20;;;;;;;6.47;47.74;94467.06;4936327;28;20083;-38
2021/01/21 07:42:18;;;;;;;4.57;1.60;;;;;;;6.51;47.91;94454.50;4936280;29;20103;-39
2021/01/21 07:44:55;;;;;;;4.45;1.20;;;;;;;6.63;46.76;94462.53;4936566;29;20075;-39
2021/01/21 07:47:30;;;;;;;8.52;4.70;;;;;;;6.71;46.75;94469.63;4935430;29;20059;-38
2021/01/21 07:50:16;;;;;;;7.85;2.80;;;;;;;7.03;45.76;94475.09;4927177;29;20103;-37
2021/01/21 07:52:45;;;;;;;7.28;3.28;;;;;;;7.10;45.62;94474.47;4938014;29;20079;-38
2021/01/21 07:55:12;;;;;;;7.65;2.10;;;;;;;7.14;45.18;94469.97;4943604;28;20057;-40
2021/01/21 07:57:39;;;;;;;4.25;2.63;;;;;;;7.29;44.78;94453.06;4939597;29;20134;-38
2021/01/21 08:00:09;;;;;;;4.68;2.38;;;;;;;7.56;44.68;94472.16;4937423;29;20055;-39
2021/01/21 08:02:43;;;;;;;5.75;2.25;;;;;;;7.65;43.95;94470.84;4933562;29;20107;-39
2021/01/21 08:05:10;;;;;;;7.38;1.65;;;;;;;7.68;43.78;94475.53;4935557;29;20071;-38
2021/01/21 08:07:44;;;;;;;14.70;2.15;;;;;;;7.76;43.67;94473.00;4933588;29;20047;-39
2021/01/21 08:10:11;;;;;;;8.60;2.38;;;;;;;7.82;43.44;94471.59;4945917;29;20465;-39
2021/01/21 08:12:38;;;;;;;4.55;1.83;;;;;;;7.97;43.23;94468.13;4956879;28;20122;-38
2021/01/21 08:15:05;;;;;;;7.25;2.38;;;;;;;8.05;43.35;94453.66;4941026;28;20099;-39
2021/01/21 08:17:32;;;;;;;4.97;1.90;;;;;;;8.13;42.60;94454.59;4935050;29;20529;-40
2021/01/21 08:19:59;;;;;;;6.50;2.25;;;;;;;7.70;43.27;94459.81;4926470;29;20095;-38
2021/01/21 08:22:26;;;;;;;5.03;1.38;;;;;;;7.89;42.75;94456.38;4918774;29;20052;-39
2021/01/21 08:25:01;;;;;;;4.53;1.70;;;;;;;7.87;42.47;94447.13;4927781;29;20114;-39
2021/01/21 08:27:44;;;;;;;6.38;1.30;;;;;;;7.75;42.11;94436.44;4935826;29;20070;-38
2021/01/21 08:30:15;;;;;;;;;;;;;;;7.97;42.27;94435.78;4934972;29;20060;-37
2021/01/21 08:32:43;;;;;;;5.13;1.15;;;;;;;7.86;42.39;94437.47;4935250;29;20403;-39
2021/01/21 08:35:21;;;;;;;6.35;1.80;;;;;;;7.99;41.18;94438.91;4934276;29;20446;-39
2021/01/21 08:37:50;;;;;;;6.10;1.50;;;;;;;8.06;41.41;94440.97;4947747;28;20561;-39
2021/01/21 08:40:17;;;;;;;2.25;0.93;;;;;;;8.19;40.76;94445.91;4933473;29;20059;-38
2021/01/21 08:42:51;;;;;;;5.10;0.90;;;;;;;8.35;40.33;94434.25;4933004;29;20048;-39
2021/01/21 08:45:20;;;;;;;3.33;1.05;;;;;;;8.39;40.20;94435.16;4932557;29;20107;-39
2021/01/21 08:47:49;;;;;;;3.63;1.10;;;;;;;8.60;39.35;94418.63;4931291;29;20079;-37
2021/01/21 08:50:17;;;;;;;2.95;0.80;;;;;;;8.72;39.00;94431.94;4933332;29;20401;-38
2021/01/21 08:53:02;;;;;;;3.50;0.88;;;;;;;8.52;39.74;94431.19;4932821;29;20512;-38
2021/01/21 08:55:45;;;;;;;2.30;1.02;;;;;;;8.62;39.48;94422.53;4933334;29;20078;-38
2021/01/21 08:58:14;;;;;;;7.88;1.25;;;;;;;8.68;39.19;94425.72;4932010;29;20060;-38
2021/01/21 09:01:07;;;;;;;3.78;0.93;;;;;;;9.03;38.32;94425.56;4934229;29;20114;-38
2021/01/21 09:03:47;;;;;;;3.00;1.00;;;;;;;9.21;38.35;94425.09;4933584;29;20059;-39
2021/01/21 09:06:16;;;;;;;1.95;0.80;;;;;;;9.25;37.61;94426.72;4928091;29;20056;-38
2021/01/21 09:08:56;;;;;;;4.57;1.33;;;;;;;9.31;37.43;94425.28;4932255;29;20146;-38
2021/01/21 09:11:40;;;;;;;5.38;1.63;;;;;;;9.48;36.57;94418.59;4933532;29;20087;-37
2021/01/21 09:14:13;;;;;;;4.65;1.50;;;;;;;9.30;36.85;94407.53;4934665;28;20056;-38
2021/01/21 09:16:55;;;;;;;4.55;1.30;;;;;;;9.41;36.84;94418.50;4933964;29;20078;-38
2021/01/21 09:19:25;;;;;;;6.60;1.80;;;;;;;9.51;36.69;94430.59;4928894;29;20569;-39
2021/01/21 09:22:02;;;;;;;8.98;2.60;;;;;;;9.59;36.37;94435.00;4920750;29;20143;-37
2021/01/21 09:24:29;;;;;;;6.18;1.83;;;;;;;9.45;36.70;94432.81;4918569;29;20174;-38
2021/01/21 09:27:13;;;;;;;5.97;1.90;;;;;;;9.53;36.19;94441.84;4937069;28;20072;-39
2021/01/21 09:29:50;;;;;;;4.53;1.65;;;;;;;9.52;36.50;94443.75;4937285;28;20122;-39
2021/01/21 09:32:19;;;;;;;4.30;1.38;;;;;;;9.47;36.64;94444.03;4934187;28;20060;-38
2021/01/21 09:35:09;;;;;;;5.15;1.95;;;;;;;9.53;36.39;94450.72;4932393;29;20051;-38
2021/01/21 09:37:39;;;;;;;3.67;1.20;;;;;;;9.66;36.11;94455.91;4930835;29;20062;-38
2021/01/21 09:40:08;;;;;;;5.13;1.45;;;;;;;9.86;35.70;94453.91;4931745;29;20214;-39
2021/01/21 09:42:34;;;;;;;3.30;1.20;;;;;;;10.17;35.32;94458.19;4943531;28;20812;-38
2021/01/21 09:45:01;;;;;;;5.47;1.27;;;;;;;10.33;34.58;94466.16;4932429;29;20292;-38
2021/01/21 09:47:27;;;;;;;8.35;1.60;;;;;;;10.46;34.59;94464.78;4940482;28;20063;-38
2021/01/21 09:49:54;;;;;;;3.03;1.00;;;;;;;10.50;34.09;94473.75;4937256;28;20114;-39
2021/01/21 09:52:21;;;;;;;2.72;1.15;;;;;;;10.65;33.32;94467.34;4940936;28;20070;-38
2021/01/21 09:54:47;;;;;;;6.95;1.30;;;;;;;10.66;33.37;94462.72;4938633;28;20710;-38
2021/01/21 09:57:14;;;;;;;4.22;1.00;;;;;;;10.66;33.17;94465.41;4933166;29;20115;-38
2021/01/21 09:59:40;;;;;;;4.78;1.73;;;;;;;10.69;33.43;94470.09;4934902;29;20056;-38
2021/01/21 10:02:07;;;;;;;4.60;0.93;;;;;;;10.79;33.04;94465.97;4933832;29;20077;-39
2021/01/21 10:04:40;;;;;;;5.15;1.10;;;;;;;10.83;32.72;94464.88;4943583;29;20054;-39
2021/01/21 10:07:07;;;;;;;4.82;1.10;;;;;;;11.04;32.84;94458.91;4937289;29;20055;-38
2021/01/21 10:09:36;;;;;;;2.60;0.70;;;;;;;11.04;32.58;94464.31;4934527;29;20157;-39
2021/01/21 10:12:04;;;;;;;1.45;0.98;;;;;;;11.14;32.34;94460.16;4948038;28;20103;-37
2021/01/21 10:14:31;;;;;;;2.03;0.80;;;;;;;11.21;31.96;94457.50;4934475;29;20087;-39
2021/01/21 10:16:58;;;;;;;3.17;0.90;;;;;;;11.11;32.27;94458.19;4937221;29;20051;-38
2021/01/21 10:19:26;;;;;;;2.30;0.82;;;;;;;11.13;32.02;94464.03;4935975;28;20056;-39
2021/01/21 10:21:52;;;;;;;3.28;0.70;;;;;;;11.16;32.54;94471.41;4937428;29;20142;-39
2021/01/21 10:24:18;;;;;;;5.38;0.60;;;;;;;11.10;32.61;94465.53;4933974;29;20052;-38
2021/01/21 10:26:45;;;;;;;1.60;0.98;;;;;;;11.20;32.25;94478.41;4935660;28;20075;-38
2021/01/21 10:29:11;;;;;;;7.22;0.80;;;;;;;11.05;32.31;94478.63;4932166;29;20058;-38
2021/01/21 10:31:38;;;;;;;1.33;0.82;;;;;;;11.04;32.65;94477.84;4937415;29;20111;-39
2021/01/21 10:34:04;;;;;;;3.13;0.95;;;;;;;11.07;32.75;94481.75;4934012;29;20052;-39
2021/01/21 10:36:31;;;;;;;2.55;0.80;;;;;;;11.40;32.51;94481.69;4933108;29;20055;-39
2021/01/21 10:38:57;;;;;;;2.92;0.73;;;;;;;11.59;31.93;94486.13;4933417;28;20047;-39
2021/01/21 10:41:24;;;;;;;1.92;0.80;;;;;;;11.52;31.70;94486.06;4932198;29;20083;-39
2021/01/21 10:43:50;;;;;;;3.85;1.15;;;;;;;11.66;32.12;94485.41;4932776;29;20150;-38
2021/01/21 10:46:17;;;;;;;2.30;0.70;;;;;;;11.57;31.68;94483.03;4934412;29;20082;-38
2021/01/21 10:48:43;;;;;;;2.95;0.70;;;;;;;11.68;31.79;94477.69;4934553;28;20174;-38
2021/01/21 10:51:10;;;;;;;3.03;0.85;;;;;;;11.68;31.46;94475.75;4934319;29;20052;-39
2021/01/21 10:53:37;;;;;;;1.40;0.70;;;;;;;11.78;31.56;94468.09;4935121;28;20047;-37
2021/01/21 10:56:03;;;;;;;2.33;0.70;;;;;;;12.03;30.59;94476.44;4937754;29;20051;-39
2021/01/21 10:58:30;;;;;;;3.25;0.73;;;;;;;12.01;31.09;94479.53;4940635;29;20067;-38
2021/01/21 11:00:56;;;;;;;1.88;0.70;;;;;;;11.70;31.22;94475.41;4935237;29;20130;-38
2021/01/21 11:03:22;;;;;;;3.72;1.10;;;;;;;11.73;31.72;94474.63;4938342;29;20107;-38
2021/01/21 11:05:49;;;;;;;3.42;1.30;;;;;;;12.02;31.19;94472.16;4948181;28;20055;-38
2021/01/21 11:08:16;;;;;;;3.33;0.85;;;;;;;12.05;30.86;94468.69;4934354;29;20062;-38
2021/01/21 11:10:42;;;;;;;2.33;0.88;;;;;;;12.16;30.66;94470.34;4935831;29;20075;-39
2021/01/21 11:13:16;;;;;;;3.72;1.10;;;;;;;12.30;30.69;94468.88;4935697;29;20055;-39
2021/01/21 11:15:43;;;;;;;2.45;0.90;;;;;;;12.09;30.69;94459.44;4933816;29;20489;-39
2021/01/21 11:18:10;;;;;;;2.40;0.90;;;;;;;12.22;30.47;94445.56;4935477;29;20397;-39
2021/01/21 11:20:37;;;;;;;1.08;0.70;;;;;;;12.70;29.66;94443.47;4948562;29;20249;-39
2021/01/21 11:23:04;;;;;;;3.10;1.00;;;;;;;12.91;29.52;94431.16;4937017;29;20143;-39
2021/01/21 11:25:30;;;;;;;3.55;0.90;;;;;;;12.82;29.23;94426.06;4935859;29;20044;-39
2021/01/21 11:28:03;;;;;;;3.65;0.90;;;;;;;12.73;29.25;94434.56;4938103;29;20074;-38
2021/01/21 11:30:30;;;;;;;5.25;2.20;;;;;;;12.83;28.96;94441.19;4939796;29;20063;-39
2021/01/21 11:32:58;;;;;;;4.35;1.98;;;;;;;12.76;29.34;94441.94;4934812;29;20107;-38
2021/01/21 11:35:25;;;;;;;4.72;2.15;;;;;;;13.26;28.63;94433.22;4939533;29;20059;-38
2021/01/21 11:37:52;;;;;;;5.82;2.47;;;;;;;16.14;24.48;94443.44;4935228;29;20043;-39
2021/01/21 11:40:18;;;;;;;3.67;1.70;;;;;;;18.20;21.54;94439.22;4933656;29;20063;-40
2021/01/21 11:42:45;;;;;;;3.80;0.95;;;;;;;16.99;22.52;94433.56;4930657;29;20062;-38
2021/01/21 11:45:12;;;;;;;1.23;0.75;;;;;;;16.98;22.91;94423.81;4932158;29;20075;-39
2021/01/21 11:47:41;;;;;;;5.63;2.00;;;;;;;17.90;22.04;94426.41;4933576;29;20506;-39
2021/01/21 11:50:14;;;;;;;2.33;1.08;;;;;;;20.37;18.55;94424.00;4932699;29;20055;-39
2021/01/21 11:52:41;;;;;;;3.00;1.25;;;;;;;20.29;18.41;94423.44;4932127;29;20070;-40
2021/01/21 11:55:09;;;;;;;1.95;0.65;;;;;;;20.95;18.05;94406.78;4932634;29;20044;-40
2021/01/21 11:57:37;;;;;;;3.33;0.80;;;;;;;21.60;16.88;94403.66;4931935;29;20047;-39
2021/01/21 12:00:09;;;;;;;2.33;0.70;;;;;;;21.85;16.76;94402.91;4935651;29;20058;-39
2021/01/21 12:02:35;;;;;;;2.33;0.80;;;;;;;22.72;15.72;94409.09;4949158;29;20135;-39